Time;durP1;ratioP1;P1;durP2;ratioP2;P2;SDS_P1;SDS_P2;PMS_P1;PMS_P2;Temp;Humidity;BMP_temperature;BMP_pressure;BME280_temperature;BME280_humidity;BME280_pressure;Samples;Min_cycle;Max_cycle;Signal;HPM_P1;HPM_P2
2023/12/29 00:02:04;;;;;;;1.00;0.80;;;;;;;;;;5066722;28;20055;-83
2023/12/29 00:04:30;;;;;;;3.65;1.00;;;;;;;;;;5049019;28;20409;-83
2023/12/29 00:06:55;;;;;;;0.90;0.75;;;;;;;;;;5068241;28;20059;-82
2023/12/29 00:09:21;;;;;;;1.42;1.23;;;;;;;;;;5069605;28;20071;-84
2023/12/29 00:11:51;;;;;;;1.13;1.02;;;;;;;;;;5050822;28;20111;-82
2023/12/29 00:14:16;;;;;;;1.27;1.17;;;;;;;;;;5067986;28;20139;-81
2023/12/29 00:16:43;;;;;;;1.20;0.98;;;;;;;;;;5068406;28;20618;-83
2023/12/29 00:19:09;;;;;;;1.48;1.02;;;;;;;;;;5068312;28;20028;-80
2023/12/29 00:21:36;;;;;;;1.95;0.85;;;;;;;;;;5068133;28;20372;-81
2023/12/29 00:24:01;;;;;;;0.80;0.80;;;;;;;;;;5068031;28;20484;-81
2023/12/29 00:26:26;;;;;;;4.00;1.25;;;;;;;;;;5067193;28;20077;-82
2023/12/29 00:28:54;;;;;;;1.90;1.73;;;;;;;;;;5068275;28;20412;-83
2023/12/29 00:31:19;;;;;;;1.52;0.82;;;;;;;;;;5066643;28;20032;-82
2023/12/29 00:33:45;;;;;;;1.27;1.10;;;;;;;;;;5069557;28;20082;-82
2023/12/29 00:36:17;;;;;;;2.13;1.30;;;;;;;;;;5071260;28;20438;-82
2023/12/29 00:38:42;;;;;;;1.55;0.63;;;;;;;;;;5068827;28;20059;-81
2023/12/29 00:41:17;;;;;;;3.83;1.60;;;;;;;;;;5068756;28;20059;-82
2023/12/29 00:43:45;;;;;;;2.58;1.90;;;;;;;;;;5068721;28;20021;-81
2023/12/29 00:46:15;;;;;;;2.05;1.40;;;;;;;;;;5068849;28;20032;-81
2023/12/29 00:48:44;;;;;;;3.55;1.92;;;;;;;;;;5051244;28;20146;-81
2023/12/29 00:51:09;;;;;;;2.30;0.80;;;;;;;;;;5052487;28;20024;-81
2023/12/29 00:53:35;;;;;;;0.73;0.70;;;;;;;;;;5067490;28;20090;-83
2023/12/29 00:56:01;;;;;;;0.55;0.55;;;;;;;;;;5069065;28;20056;-83
2023/12/29 00:58:27;;;;;;;0.32;0.32;;;;;;;;;;5072643;28;20059;-80
2023/12/29 01:00:52;;;;;;;1.23;1.13;;;;;;;;;;5074039;28;20032;-81
2023/12/29 01:03:18;;;;;;;1.00;0.65;;;;;;;;;;5072493;28;20028;-79
2023/12/29 01:05:43;;;;;;;1.77;1.45;;;;;;;;;;5072463;28;20075;-81
2023/12/29 01:08:09;;;;;;;0.88;0.88;;;;;;;;;;5072388;28;20031;-82
2023/12/29 01:10:34;;;;;;;0.60;0.60;;;;;;;;;;5072007;28;20617;-80
2023/12/29 01:12:59;;;;;;;1.25;1.00;;;;;;;;;;5072686;28;20039;-80
2023/12/29 01:15:25;;;;;;;4.80;1.63;;;;;;;;;;5053765;28;20044;-81
2023/12/29 01:17:50;;;;;;;0.65;0.65;;;;;;;;;;5072195;28;20399;-81
2023/12/29 01:20:16;;;;;;;0.50;0.50;;;;;;;;;;5054120;28;20074;-81
2023/12/29 01:22:41;;;;;;;2.97;1.38;;;;;;;;;;5071153;28;20028;-81
2023/12/29 01:25:07;;;;;;;0.82;0.60;;;;;;;;;;5069454;28;20483;-83
2023/12/29 01:27:32;;;;;;;0.75;0.50;;;;;;;;;;5072564;28;20036;-80
2023/12/29 01:29:59;;;;;;;0.43;0.43;;;;;;;;;;5071947;28;20537;-83
2023/12/29 01:32:25;;;;;;;0.68;0.68;;;;;;;;;;5068953;28;20478;-83
2023/12/29 01:34:52;;;;;;;1.13;0.85;;;;;;;;;;5073960;28;20103;-81
2023/12/29 01:37:18;;;;;;;1.52;1.15;;;;;;;;;;5073593;28;21451;-81
2023/12/29 01:39:43;;;;;;;1.05;0.95;;;;;;;;;;5071834;28;20106;-82
2023/12/29 01:42:10;;;;;;;0.65;0.65;;;;;;;;;;5071462;28;20024;-80
2023/12/29 01:44:36;;;;;;;0.30;0.30;;;;;;;;;;5055336;28;20081;-82
2023/12/29 01:47:05;;;;;;;1.25;0.75;;;;;;;;;;5072422;28;20059;-81
2023/12/29 01:49:32;;;;;;;0.80;0.80;;;;;;;;;;5061076;28;20024;-81
2023/12/29 01:52:00;;;;;;;2.72;1.35;;;;;;;;;;5072013;28;20348;-81
2023/12/29 01:54:29;;;;;;;0.93;0.40;;;;;;;;;;5071370;28;20542;-81
2023/12/29 01:56:57;;;;;;;0.60;0.60;;;;;;;;;;5072370;28;20029;-80
2023/12/29 01:59:25;;;;;;;1.20;1.10;;;;;;;;;;5052881;28;20036;-81
2023/12/29 02:01:52;;;;;;;0.30;0.30;;;;;;;;;;5071169;28;20031;-81
2023/12/29 02:04:18;;;;;;;0.47;0.45;;;;;;;;;;5072824;28;20028;-80
2023/12/29 02:06:44;;;;;;;0.40;0.40;;;;;;;;;;5073434;28;20036;-82
2023/12/29 02:09:12;;;;;;;1.42;1.33;;;;;;;;;;5074164;28;20028;-80
2023/12/29 02:11:38;;;;;;;0.88;0.55;;;;;;;;;;5070818;28;20029;-81
2023/12/29 02:14:04;;;;;;;0.47;0.47;;;;;;;;;;5069634;28;20498;-79
2023/12/29 02:16:57;;;;;;;0.77;0.77;;;;;;;;;;5068183;28;20047;-81
2023/12/29 02:19:44;;;;;;;0.75;0.75;;;;;;;;;;5068825;28;20029;-82
2023/12/29 02:22:10;;;;;;;0.30;0.30;;;;;;;;;;5069320;28;20372;-81
2023/12/29 02:24:37;;;;;;;0.25;0.25;;;;;;;;;;5070147;28;20388;-81
2023/12/29 02:27:20;;;;;;;0.77;0.77;;;;;;;;;;5068961;28;20467;-80
2023/12/29 02:29:56;;;;;;;0.88;0.70;;;;;;;;;;5069098;28;20028;-81
2023/12/29 02:32:23;;;;;;;1.05;0.65;;;;;;;;;;5068052;28;20047;-80
2023/12/29 02:34:51;;;;;;;0.80;0.52;;;;;;;;;;5049442;28;20039;-81
2023/12/29 02:37:18;;;;;;;0.30;0.30;;;;;;;;;;5068508;28;20036;-81
2023/12/29 02:39:43;;;;;;;0.47;0.30;;;;;;;;;;5068195;28;20032;-80
2023/12/29 02:42:09;;;;;;;0.95;0.80;;;;;;;;;;5066782;28;20024;-80
2023/12/29 02:44:34;;;;;;;0.95;0.70;;;;;;;;;;5051160;28;20165;-81
2023/12/29 02:47:00;;;;;;;3.20;0.75;;;;;;;;;;5051659;28;20583;-81
2023/12/29 02:49:26;;;;;;;0.40;0.38;;;;;;;;;;5068888;28;20033;-82
2023/12/29 02:51:52;;;;;;;0.70;0.70;;;;;;;;;;5068355;28;20119;-82
2023/12/29 02:54:17;;;;;;;0.50;0.50;;;;;;;;;;5051040;28;20116;-81
2023/12/29 02:56:43;;;;;;;0.35;0.35;;;;;;;;;;5066967;28;20475;-83
2023/12/29 02:59:08;;;;;;;1.55;0.82;;;;;;;;;;5068898;28;20029;-82
2023/12/29 03:01:33;;;;;;;0.98;0.45;;;;;;;;;;5068213;28;20038;-81
2023/12/29 03:04:00;;;;;;;1.35;1.02;;;;;;;;;;5068956;28;20615;-83
2023/12/29 03:06:26;;;;;;;0.55;0.50;;;;;;;;;;5068643;28;20471;-81
2023/12/29 03:08:51;;;;;;;0.40;0.30;;;;;;;;;;5049192;28;20017;-83
2023/12/29 03:11:17;;;;;;;0.38;0.38;;;;;;;;;;5068080;28;20059;-83
2023/12/29 03:13:42;;;;;;;0.40;0.40;;;;;;;;;;5066125;28;20027;-82
2023/12/29 03:16:11;;;;;;;0.50;0.50;;;;;;;;;;5069427;28;20078;-82
2023/12/29 03:18:39;;;;;;;0.30;0.30;;;;;;;;;;5067588;28;20035;-81
2023/12/29 03:21:05;;;;;;;2.03;1.00;;;;;;;;;;5068681;28;20024;-82
2023/12/29 03:23:31;;;;;;;0.60;0.60;;;;;;;;;;5068255;28;20086;-82
2023/12/29 03:25:59;;;;;;;1.98;0.88;;;;;;;;;;5067887;28;20030;-82
2023/12/29 03:28:24;;;;;;;2.50;1.55;;;;;;;;;;5067880;28;20024;-82
2023/12/29 03:30:50;;;;;;;1.27;1.05;;;;;;;;;;5067319;28;20094;-82
2023/12/29 03:33:15;;;;;;;2.00;1.83;;;;;;;;;;5068083;28;20043;-82
2023/12/29 03:35:41;;;;;;;2.45;1.13;;;;;;;;;;5067366;28;20022;-82
2023/12/29 03:38:06;;;;;;;0.60;0.60;;;;;;;;;;5067816;28;20069;-82
2023/12/29 03:40:31;;;;;;;1.15;1.00;;;;;;;;;;5068002;28;20063;-83
2023/12/29 03:42:57;;;;;;;1.23;0.95;;;;;;;;;;5066995;28;20476;-82
2023/12/29 03:45:22;;;;;;;0.30;0.30;;;;;;;;;;5067852;28;20024;-83
2023/12/29 03:47:47;;;;;;;0.57;0.57;;;;;;;;;;5067068;28;20070;-81
2023/12/29 03:50:13;;;;;;;0.50;0.50;;;;;;;;;;5067257;28;20027;-81
2023/12/29 03:52:38;;;;;;;0.43;0.43;;;;;;;;;;5048608;28;20093;-82
2023/12/29 03:55:04;;;;;;;0.45;0.45;;;;;;;;;;5067911;28;20017;-81
2023/12/29 03:57:30;;;;;;;0.70;0.70;;;;;;;;;;5068739;28;20021;-81
2023/12/29 03:59:55;;;;;;;1.58;0.90;;;;;;;;;;5068127;28;20028;-82
2023/12/29 04:02:21;;;;;;;4.30;0.60;;;;;;;;;;5068243;28;20033;-82
2023/12/29 04:04:46;;;;;;;0.22;0.22;;;;;;;;;;5066998;28;20038;-81
2023/12/29 04:07:11;;;;;;;1.00;0.90;;;;;;;;;;5068213;28;20555;-81
2023/12/29 04:09:37;;;;;;;5.93;1.85;;;;;;;;;;5050244;28;20059;-81
2023/12/29 04:12:02;;;;;;;3.60;1.80;;;;;;;;;;5049899;28;20036;-81
2023/12/29 04:14:28;;;;;;;0.95;0.90;;;;;;;;;;5066094;28;20226;-81
2023/12/29 04:16:53;;;;;;;1.48;1.38;;;;;;;;;;5068425;28;20028;-81
2023/12/29 04:19:18;;;;;;;1.73;1.30;;;;;;;;;;5066886;28;20020;-82
2023/12/29 04:21:44;;;;;;;1.48;1.38;;;;;;;;;;5067502;28;20017;-81
2023/12/29 04:24:09;;;;;;;2.55;1.95;;;;;;;;;;5048561;28;20029;-82
2023/12/29 04:26:36;;;;;;;3.00;2.55;;;;;;;;;;5067139;28;20032;-80
2023/12/29 04:29:02;;;;;;;3.25;2.50;;;;;;;;;;5065898;28;20024;-82
2023/12/29 04:31:27;;;;;;;1.88;1.73;;;;;;;;;;5066795;28;20028;-80
2023/12/29 04:33:53;;;;;;;2.05;1.73;;;;;;;;;;5071217;28;20020;-82
2023/12/29 04:36:21;;;;;;;2.35;1.77;;;;;;;;;;5069499;28;20476;-80
2023/12/29 04:38:46;;;;;;;1.08;1.08;;;;;;;;;;5070287;28;20037;-80
2023/12/29 04:41:13;;;;;;;0.90;0.90;;;;;;;;;;5068104;28;20039;-80
2023/12/29 04:43:38;;;;;;;1.08;0.88;;;;;;;;;;5052830;28;20056;-80
2023/12/29 04:46:04;;;;;;;0.55;0.55;;;;;;;;;;5068397;28;20072;-81
2023/12/29 04:48:29;;;;;;;0.40;0.40;;;;;;;;;;5070709;28;20127;-81
2023/12/29 04:50:54;;;;;;;0.38;0.38;;;;;;;;;;5069288;28;20029;-84
2023/12/29 04:53:20;;;;;;;0.75;0.73;;;;;;;;;;5071019;28;20032;-82
2023/12/29 04:55:45;;;;;;;0.98;0.98;;;;;;;;;;5070242;28;20040;-82
2023/12/29 04:58:10;;;;;;;6.70;0.75;;;;;;;;;;5053032;28;20534;-80
2023/12/29 05:00:36;;;;;;;1.55;0.57;;;;;;;;;;5051554;28;20067;-82
2023/12/29 05:03:01;;;;;;;0.60;0.60;;;;;;;;;;5070602;28;20035;-79
2023/12/29 05:05:27;;;;;;;0.32;0.32;;;;;;;;;;5069392;28;20077;-82
2023/12/29 05:07:52;;;;;;;0.70;0.70;;;;;;;;;;5052373;28;20040;-81
2023/12/29 05:10:18;;;;;;;1.15;0.88;;;;;;;;;;5068824;28;20514;-80
2023/12/29 05:12:43;;;;;;;0.60;0.60;;;;;;;;;;5071041;28;20036;-82
2023/12/29 05:15:09;;;;;;;0.55;0.55;;;;;;;;;;5070278;28;20083;-84
2023/12/29 05:17:34;;;;;;;1.48;1.38;;;;;;;;;;5053862;28;20032;-82
2023/12/29 05:20:00;;;;;;;0.47;0.47;;;;;;;;;;5069001;28;20407;-82
2023/12/29 05:22:25;;;;;;;1.20;1.00;;;;;;;;;;5070852;28;20035;-83
2023/12/29 05:24:57;;;;;;;1.65;1.27;;;;;;;;;;5071678;28;20039;-80
2023/12/29 05:27:23;;;;;;;1.00;0.60;;;;;;;;;;5072968;28;20043;-82
2023/12/29 05:29:48;;;;;;;0.70;0.70;;;;;;;;;;5073306;28;20021;-81
2023/12/29 05:32:13;;;;;;;0.47;0.47;;;;;;;;;;5073563;28;20028;-83
2023/12/29 05:34:39;;;;;;;0.63;0.32;;;;;;;;;;5053459;28;20120;-80
2023/12/29 05:37:05;;;;;;;0.40;0.40;;;;;;;;;;5070820;28;20039;-82
2023/12/29 05:39:30;;;;;;;0.30;0.30;;;;;;;;;;5072217;28;20032;-80
2023/12/29 05:41:58;;;;;;;0.68;0.47;;;;;;;;;;5072757;28;20368;-81
2023/12/29 05:44:26;;;;;;;0.40;0.40;;;;;;;;;;5069123;28;20111;-81
2023/12/29 05:46:51;;;;;;;0.50;0.50;;;;;;;;;;5071859;28;20029;-81
2023/12/29 05:49:23;;;;;;;0.55;0.55;;;;;;;;;;5054391;28;20039;-80
2023/12/29 05:51:49;;;;;;;0.60;0.60;;;;;;;;;;5053280;28;20032;-81
2023/12/29 05:54:14;;;;;;;0.88;0.82;;;;;;;;;;5071120;28;20101;-80
2023/12/29 05:56:40;;;;;;;1.30;0.90;;;;;;;;;;5069588;28;20059;-79
2023/12/29 05:59:05;;;;;;;5.57;1.00;;;;;;;;;;5069392;28;20059;-80
2023/12/29 06:01:31;;;;;;;2.92;0.90;;;;;;;;;;5072501;28;20094;-80
2023/12/29 06:03:56;;;;;;;0.30;0.30;;;;;;;;;;5072983;28;20044;-79
2023/12/29 06:06:22;;;;;;;1.45;0.82;;;;;;;;;;5069313;28;20032;-81
2023/12/29 06:08:47;;;;;;;0.55;0.55;;;;;;;;;;5070411;28;20020;-82
2023/12/29 06:11:16;;;;;;;3.92;1.73;;;;;;;;;;5072439;28;20043;-80
2023/12/29 06:13:45;;;;;;;2.60;1.20;;;;;;;;;;5052990;28;20036;-80
2023/12/29 06:16:17;;;;;;;1.15;1.08;;;;;;;;;;5069748;28;20060;-79
2023/12/29 06:18:43;;;;;;;0.63;0.63;;;;;;;;;;5071998;28;20036;-80
2023/12/29 06:21:08;;;;;;;0.85;0.85;;;;;;;;;;5070465;28;20020;-80
2023/12/29 06:23:34;;;;;;;0.30;0.30;;;;;;;;;;5071461;28;20706;-79
2023/12/29 06:26:02;;;;;;;0.30;0.30;;;;;;;;;;5051679;28;20032;-81
2023/12/29 06:28:28;;;;;;;0.40;0.40;;;;;;;;;;5072787;28;20460;-80
2023/12/29 06:30:53;;;;;;;0.65;0.65;;;;;;;;;;5072199;28;20077;-80
2023/12/29 06:33:21;;;;;;;0.40;0.40;;;;;;;;;;5053878;28;20033;-79
2023/12/29 06:35:55;;;;;;;1.02;0.98;;;;;;;;;;5073823;28;20028;-84
2023/12/29 06:38:21;;;;;;;7.75;2.97;;;;;;;;;;5071801;28;20016;-80
2023/12/29 06:40:46;;;;;;;3.00;2.72;;;;;;;;;;5071023;28;20032;-81
2023/12/29 06:43:12;;;;;;;3.55;1.50;;;;;;;;;;5071732;28;20043;-79
2023/12/29 06:45:38;;;;;;;2.60;1.65;;;;;;;;;;5072039;28;20044;-84
2023/12/29 06:48:03;;;;;;;1.85;1.55;;;;;;;;;;5052986;28;20387;-80
2023/12/29 06:50:34;;;;;;;6.13;1.15;;;;;;;;;;5052162;28;20088;-80
2023/12/29 06:53:02;;;;;;;2.95;2.28;;;;;;;;;;5071236;28;20031;-80
2023/12/29 06:55:28;;;;;;;3.78;1.95;;;;;;;;;;5070201;28;20052;-81
2023/12/29 06:57:53;;;;;;;1.92;1.70;;;;;;;;;;5072154;28;20051;-80
2023/12/29 07:00:19;;;;;;;6.35;1.63;;;;;;;;;;5052104;28;20021;-80
2023/12/29 07:02:45;;;;;;;1.52;1.42;;;;;;;;;;5070898;28;20101;-80
2023/12/29 07:05:10;;;;;;;2.85;1.85;;;;;;;;;;5072495;28;20024;-80
2023/12/29 07:07:38;;;;;;;1.77;1.67;;;;;;;;;;5071469;28;20033;-81
2023/12/29 07:10:06;;;;;;;0.90;0.90;;;;;;;;;;5070256;28;20024;-80
2023/12/29 07:12:31;;;;;;;11.85;1.92;;;;;;;;;;5071523;28;20039;-80
2023/12/29 07:14:57;;;;;;;3.53;1.48;;;;;;;;;;5069737;28;20128;-81
2023/12/29 07:17:22;;;;;;;2.97;2.40;;;;;;;;;;5068907;28;20036;-81
2023/12/29 07:19:49;;;;;;;2.13;1.20;;;;;;;;;;5072341;28;20029;-83
2023/12/29 07:22:15;;;;;;;1.00;0.98;;;;;;;;;;5054109;28;20029;-80
2023/12/29 07:24:41;;;;;;;2.05;0.98;;;;;;;;;;5050851;28;20530;-82
2023/12/29 07:27:07;;;;;;;2.10;1.98;;;;;;;;;;5067579;28;20107;-80
2023/12/29 07:29:33;;;;;;;1.73;1.50;;;;;;;;;;5069056;28;20035;-82
2023/12/29 07:31:59;;;;;;;1.67;1.15;;;;;;;;;;5069375;28;20028;-81
2023/12/29 07:34:24;;;;;;;3.28;1.77;;;;;;;;;;5070219;28;20177;-78
2023/12/29 07:36:50;;;;;;;3.53;2.38;;;;;;;;;;5049309;28;20028;-81
2023/12/29 07:39:15;;;;;;;2.58;1.83;;;;;;;;;;5068680;28;20037;-80
2023/12/29 07:41:41;;;;;;;4.13;2.67;;;;;;;;;;5051002;28;20036;-80
2023/12/29 07:44:08;;;;;;;5.43;3.08;;;;;;;;;;5068757;28;20399;-83
2023/12/29 07:46:33;;;;;;;2.60;2.35;;;;;;;;;;5050550;28;20511;-80
2023/12/29 07:48:59;;;;;;;3.22;2.28;;;;;;;;;;5067020;28;20024;-81
2023/12/29 07:51:24;;;;;;;3.53;3.22;;;;;;;;;;5068876;28;20024;-81
2023/12/29 07:53:49;;;;;;;4.40;3.40;;;;;;;;;;5049661;28;20062;-80
2023/12/29 07:56:15;;;;;;;2.83;2.63;;;;;;;;;;5049915;28;20044;-80
2023/12/29 07:58:40;;;;;;;3.83;3.05;;;;;;;;;;5071357;28;20024;-80
2023/12/29 08:01:06;;;;;;;3.30;3.00;;;;;;;;;;5070906;28;20388;-80
2023/12/29 08:03:31;;;;;;;6.35;3.63;;;;;;;;;;5067598;28;20028;-78
2023/12/29 08:05:56;;;;;;;2.72;2.53;;;;;;;;;;5051604;28;20037;-80
2023/12/29 08:08:22;;;;;;;3.75;2.72;;;;;;;;;;5067544;28;20463;-79
2023/12/29 08:10:47;;;;;;;4.53;3.33;;;;;;;;;;5070669;28;20032;-80
2023/12/29 08:13:12;;;;;;;3.85;3.25;;;;;;;;;;5070128;28;20043;-81
2023/12/29 08:15:39;;;;;;;6.88;2.95;;;;;;;;;;5069598;28;20511;-80
2023/12/29 08:18:04;;;;;;;5.47;2.83;;;;;;;;;;5068038;28;20024;-81
2023/12/29 08:20:30;;;;;;;4.57;3.55;;;;;;;;;;5050366;28;20028;-79
2023/12/29 08:22:56;;;;;;;4.82;2.78;;;;;;;;;;5068037;28;20153;-78
2023/12/29 08:25:22;;;;;;;3.08;2.25;;;;;;;;;;5068332;28;21992;-80
2023/12/29 08:27:48;;;;;;;7.15;3.97;;;;;;;;;;5068098;28;20040;-79
2023/12/29 08:30:13;;;;;;;4.32;3.00;;;;;;;;;;5066215;28;20016;-79
2023/12/29 08:32:39;;;;;;;5.32;3.08;;;;;;;;;;5066673;28;20066;-78
2023/12/29 08:35:06;;;;;;;2.63;2.17;;;;;;;;;;5067019;28;20051;-79
2023/12/29 08:37:33;;;;;;;6.57;3.53;;;;;;;;;;5050294;28;20480;-79
2023/12/29 08:39:59;;;;;;;4.15;3.25;;;;;;;;;;5068295;28;20031;-81
2023/12/29 08:42:24;;;;;;;5.75;3.95;;;;;;;;;;5068535;28;20036;-81
2023/12/29 08:44:50;;;;;;;7.75;3.97;;;;;;;;;;5067466;28;20468;-80
2023/12/29 08:47:15;;;;;;;8.55;4.05;;;;;;;;;;5068960;28;20027;-79
2023/12/29 08:49:43;;;;;;;4.90;3.60;;;;;;;;;;5068081;28;20365;-81
2023/12/29 08:52:11;;;;;;;4.60;3.95;;;;;;;;;;5068885;28;20474;-80
2023/12/29 08:54:36;;;;;;;6.15;4.20;;;;;;;;;;5068909;28;20059;-80
2023/12/29 08:57:03;;;;;;;4.97;3.80;;;;;;;;;;5068975;28;20071;-80
2023/12/29 08:59:28;;;;;;;5.43;4.43;;;;;;;;;;5067984;28;20467;-79
2023/12/29 09:01:54;;;;;;;10.00;5.35;;;;;;;;;;5068059;28;20056;-82
2023/12/29 09:04:19;;;;;;;5.25;4.10;;;;;;;;;;5067833;28;20043;-79
2023/12/29 09:06:45;;;;;;;6.28;4.35;;;;;;;;;;5067700;28;20028;-81
2023/12/29 09:09:12;;;;;;;11.48;6.47;;;;;;;;;;5069474;28;20032;-81
2023/12/29 09:11:39;;;;;;;4.82;3.33;;;;;;;;;;5068902;28;20142;-80
2023/12/29 09:14:04;;;;;;;4.38;3.78;;;;;;;;;;5069009;28;20047;-81
2023/12/29 09:16:30;;;;;;;13.27;4.88;;;;;;;;;;5068824;28;20072;-79
2023/12/29 09:18:55;;;;;;;6.88;4.53;;;;;;;;;;5071728;28;20028;-80
2023/12/29 09:21:21;;;;;;;6.05;4.53;;;;;;;;;;5053086;28;20024;-81
2023/12/29 09:23:47;;;;;;;5.50;4.35;;;;;;;;;;5071661;28;20419;-80
2023/12/29 09:26:12;;;;;;;4.43;4.00;;;;;;;;;;5071518;28;20028;-80
2023/12/29 09:28:41;;;;;;;7.22;3.95;;;;;;;;;;5072235;28;20028;-80
2023/12/29 09:31:06;;;;;;;6.07;4.60;;;;;;;;;;5070682;28;20111;-80
2023/12/29 09:33:32;;;;;;;4.80;3.42;;;;;;;;;;5055230;28;20485;-81
2023/12/29 09:35:57;;;;;;;5.68;4.03;;;;;;;;;;5070432;28;20029;-81
2023/12/29 09:38:23;;;;;;;4.90;4.32;;;;;;;;;;5071623;28;20035;-79
2023/12/29 09:40:49;;;;;;;4.63;3.95;;;;;;;;;;5070805;28;20035;-79
2023/12/29 09:43:14;;;;;;;7.90;5.20;;;;;;;;;;5072911;28;20055;-80
2023/12/29 09:45:42;;;;;;;5.53;4.03;;;;;;;;;;5071465;28;20445;-79
2023/12/29 09:48:08;;;;;;;5.45;3.53;;;;;;;;;;5070117;28;20033;-81
2023/12/29 09:50:35;;;;;;;3.35;2.78;;;;;;;;;;5070814;28;20051;-80
2023/12/29 09:53:02;;;;;;;4.00;3.65;;;;;;;;;;5070816;28;20027;-81
2023/12/29 09:55:28;;;;;;;6.82;3.58;;;;;;;;;;5071068;28;20441;-81
2023/12/29 09:57:54;;;;;;;6.03;3.85;;;;;;;;;;5071308;28;20108;-81
2023/12/29 10:00:20;;;;;;;5.82;3.63;;;;;;;;;;5052582;28;20020;-80
2023/12/29 10:02:48;;;;;;;5.85;3.80;;;;;;;;;;5070403;28;20764;-79
2023/12/29 10:05:15;;;;;;;11.30;4.45;;;;;;;;;;5070958;28;20043;-81
2023/12/29 10:07:43;;;;;;;5.32;3.38;;;;;;;;;;5071361;28;20028;-80
2023/12/29 10:10:14;;;;;;;3.83;3.42;;;;;;;;;;5068828;28;20380;-81
2023/12/29 10:12:40;;;;;;;3.13;2.13;;;;;;;;;;5052477;28;20052;-79
2023/12/29 10:15:15;;;;;;;5.85;4.15;;;;;;;;;;5070251;28;20083;-82
2023/12/29 10:18:02;;;;;;;4.22;3.25;;;;;;;;;;5071618;28;20032;-81
2023/12/29 10:20:49;;;;;;;5.82;3.58;;;;;;;;;;5070629;28;20035;-79
2023/12/29 10:23:22;;;;;;;6.70;3.97;;;;;;;;;;5051767;28;20044;-81
2023/12/29 10:25:49;;;;;;;8.68;3.28;;;;;;;;;;5049614;28;20055;-79
2023/12/29 10:28:17;;;;;;;8.50;2.95;;;;;;;;;;5067419;28;20389;-78
2023/12/29 10:30:42;;;;;;;6.70;4.15;;;;;;;;;;5070249;28;20087;-80
2023/12/29 10:33:08;;;;;;;8.93;4.68;;;;;;;;;;5053940;28;20056;-80
2023/12/29 10:35:37;;;;;;;8.77;3.63;;;;;;;;;;5072077;28;20025;-80
2023/12/29 10:38:12;;;;;;;6.97;4.57;;;;;;;;;;5069819;28;20107;-81
2023/12/29 10:40:38;;;;;;;7.50;3.92;;;;;;;;;;5070815;28;22182;-80
2023/12/29 10:43:08;;;;;;;6.03;3.58;;;;;;;;;;5072492;28;20076;-81
2023/12/29 10:45:34;;;;;;;5.68;3.55;;;;;;;;;;5068468;28;20127;-79
2023/12/29 10:48:00;;;;;;;9.38;4.95;;;;;;;;;;5073906;28;20486;-81
2023/12/29 10:50:27;;;;;;;7.13;4.65;;;;;;;;;;5073330;28;20016;-81
2023/12/29 10:53:11;;;;;;;8.18;3.10;;;;;;;;;;5073777;28;20031;-80
2023/12/29 10:55:36;;;;;;;5.13;2.53;;;;;;;;;;5075720;28;20032;-81
2023/12/29 10:58:02;;;;;;;4.13;3.63;;;;;;;;;;5074008;28;20024;-78
2023/12/29 11:00:31;;;;;;;5.53;3.78;;;;;;;;;;5071804;28;20111;-80
2023/12/29 11:02:56;;;;;;;8.57;4.57;;;;;;;;;;5053262;28;20066;-80
2023/12/29 11:05:25;;;;;;;5.38;3.33;;;;;;;;;;5072787;28;20593;-80
2023/12/29 11:07:54;;;;;;;5.28;3.45;;;;;;;;;;5074470;28;20037;-80
2023/12/29 11:10:20;;;;;;;4.15;2.92;;;;;;;;;;5074806;28;20101;-79
2023/12/29 11:12:49;;;;;;;12.57;3.70;;;;;;;;;;5072195;28;20448;-82
2023/12/29 11:15:15;;;;;;;5.13;4.20;;;;;;;;;;5056737;28;20050;-80
2023/12/29 11:17:52;;;;;;;6.45;3.67;;;;;;;;;;5074578;28;20033;-80
2023/12/29 11:20:19;;;;;;;3.85;3.38;;;;;;;;;;5075000;28;21400;-81
2023/12/29 11:22:46;;;;;;;6.47;3.85;;;;;;;;;;5053852;28;20028;-82
2023/12/29 11:25:12;;;;;;;4.93;4.00;;;;;;;;;;5072668;28;20076;-79
2023/12/29 11:27:38;;;;;;;3.83;2.88;;;;;;;;;;5072537;28;20392;-81
2023/12/29 11:30:04;;;;;;;6.15;4.15;;;;;;;;;;5073920;28;20028;-83
2023/12/29 11:32:29;;;;;;;9.63;4.00;;;;;;;;;;5067956;28;20028;-80
2023/12/29 11:35:06;;;;;;;3.85;3.10;;;;;;;;;;5074826;28;20475;-80
2023/12/29 11:37:51;;;;;;;4.72;3.25;;;;;;;;;;5055727;28;20094;-81
2023/12/29 11:40:20;;;;;;;5.82;3.22;;;;;;;;;;5073660;28;20032;-80
2023/12/29 11:42:49;;;;;;;5.85;3.38;;;;;;;;;;5074991;28;20036;-80
2023/12/29 11:45:35;;;;;;;5.43;4.30;;;;;;;;;;5057115;28;20042;-81
2023/12/29 11:48:03;;;;;;;4.63;3.35;;;;;;;;;;5071163;28;20028;-80
2023/12/29 11:50:33;;;;;;;7.68;3.72;;;;;;;;;;5073579;28;21216;-81
2023/12/29 11:52:59;;;;;;;8.07;4.57;;;;;;;;;;5073115;28;20033;-79
2023/12/29 11:55:38;;;;;;;7.05;3.97;;;;;;;;;;5072881;28;20040;-81
2023/12/29 11:58:22;;;;;;;6.80;4.82;;;;;;;;;;5073500;28;20027;-78
2023/12/29 12:00:48;;;;;;;7.68;4.68;;;;;;;;;;5074246;28;20040;-78
2023/12/29 12:03:23;;;;;;;4.15;3.03;;;;;;;;;;5056665;28;20116;-81
2023/12/29 12:05:49;;;;;;;5.00;3.03;;;;;;;;;;5073733;28;20107;-79
2023/12/29 12:08:28;;;;;;;4.72;3.47;;;;;;;;;;5072624;28;20492;-78
2023/12/29 12:10:54;;;;;;;6.75;3.05;;;;;;;;;;5072495;28;20024;-81
2023/12/29 12:13:58;;;;;;;3.80;2.83;;;;;;;;;;5072922;28;20115;-80
2023/12/29 12:16:44;;;;;;;5.75;3.22;;;;;;;;;;4992403;28;20053;-82
2023/12/29 12:19:10;;;;;;;5.43;3.72;;;;;;;;;;4991436;28;20066;-79
2023/12/29 12:21:36;;;;;;;9.77;4.65;;;;;;;;;;5037945;28;20055;-80
2023/12/29 12:24:04;;;;;;;3.58;2.58;;;;;;;;;;5069347;28;20055;-82
2023/12/29 12:26:33;;;;;;;5.00;3.08;;;;;;;;;;5071151;28;20499;-80
2023/12/29 12:28:59;;;;;;;7.97;2.57;;;;;;;;;;5070386;28;20041;-84
2023/12/29 12:31:26;;;;;;;5.93;3.42;;;;;;;;;;5069810;28;20263;-81
2023/12/29 12:33:55;;;;;;;6.10;3.45;;;;;;;;;;5051129;28;20030;-80
2023/12/29 12:36:21;;;;;;;5.35;3.13;;;;;;;;;;5069229;28;20051;-81
2023/12/29 12:38:57;;;;;;;4.53;3.17;;;;;;;;;;5068491;28;20028;-81
2023/12/29 12:41:23;;;;;;;4.10;2.58;;;;;;;;;;5067901;28;20025;-83
2023/12/29 12:44:08;;;;;;;3.80;3.20;;;;;;;;;;5048847;28;20020;-80
2023/12/29 12:46:37;;;;;;;10.15;4.55;;;;;;;;;;5067181;28;20107;-80
2023/12/29 12:49:04;;;;;;;3.63;2.70;;;;;;;;;;5069803;28;20032;-79
2023/12/29 12:51:32;;;;;;;4.60;3.03;;;;;;;;;;5068164;28;20063;-83
2023/12/29 12:53:57;;;;;;;4.20;2.95;;;;;;;;;;5052834;28;20024;-82
2023/12/29 12:56:27;;;;;;;4.38;2.13;;;;;;;;;;5071796;28;20029;-81
2023/12/29 12:58:53;;;;;;;4.63;2.67;;;;;;;;;;5072016;28;20032;-80
2023/12/29 13:01:18;;;;;;;1.63;1.13;;;;;;;;;;5074222;28;20156;-81
2023/12/29 13:03:45;;;;;;;4.18;3.10;;;;;;;;;;5074958;28;20024;-80
2023/12/29 13:06:10;;;;;;;5.25;2.47;;;;;;;;;;5057153;28;20028;-81
2023/12/29 13:08:36;;;;;;;2.97;1.73;;;;;;;;;;5075241;28;20039;-81
2023/12/29 13:11:01;;;;;;;2.38;2.00;;;;;;;;;;5072025;28;20078;-84
2023/12/29 13:13:37;;;;;;;2.60;2.10;;;;;;;;;;5071710;28;20024;-80
2023/12/29 13:16:02;;;;;;;2.03;1.65;;;;;;;;;;5070658;28;20695;-82
2023/12/29 13:18:34;;;;;;;2.90;1.85;;;;;;;;;;5070628;28;20123;-81
2023/12/29 13:21:02;;;;;;;2.63;1.40;;;;;;;;;;5070122;28;20021;-81
2023/12/29 13:23:28;;;;;;;2.45;0.95;;;;;;;;;;5070565;28;20025;-82
2023/12/29 13:26:04;;;;;;;1.55;1.27;;;;;;;;;;5070551;28;20372;-82
2023/12/29 13:28:32;;;;;;;1.58;1.30;;;;;;;;;;5069846;28;20056;-79
2023/12/29 13:30:58;;;;;;;2.10;1.58;;;;;;;;;;5052001;28;20028;-80
2023/12/29 13:33:44;;;;;;;1.77;1.48;;;;;;;;;;5069995;28;20016;-80
2023/12/29 13:36:20;;;;;;;4.70;1.85;;;;;;;;;;5067517;28;20502;-81
2023/12/29 13:38:53;;;;;;;1.73;1.48;;;;;;;;;;5070231;28;20048;-83
2023/12/29 13:41:20;;;;;;;1.33;0.82;;;;;;;;;;5070387;28;20092;-81
2023/12/29 13:43:46;;;;;;;3.08;1.88;;;;;;;;;;5071270;28;20376;-80
2023/12/29 13:46:12;;;;;;;3.13;1.85;;;;;;;;;;5052764;28;20458;-81
2023/12/29 13:48:41;;;;;;;2.85;1.38;;;;;;;;;;5052635;28;20527;-80
2023/12/29 13:51:07;;;;;;;1.50;1.30;;;;;;;;;;5071868;28;20031;-82
2023/12/29 13:53:32;;;;;;;2.42;1.75;;;;;;;;;;5071136;28;20024;-83
2023/12/29 13:56:08;;;;;;;1.45;1.20;;;;;;;;;;5071055;28;20510;-82
2023/12/29 13:58:34;;;;;;;2.47;1.58;;;;;;;;;;5070930;28;20052;-80
2023/12/29 14:01:00;;;;;;;5.50;1.33;;;;;;;;;;5070511;28;20655;-81
2023/12/29 14:03:40;;;;;;;4.63;1.33;;;;;;;;;;5069855;28;20032;-81
2023/12/29 14:06:11;;;;;;;1.80;0.90;;;;;;;;;;5071530;28;20028;-80
2023/12/29 14:08:46;;;;;;;4.70;2.10;;;;;;;;;;5053041;28;20024;-83
2023/12/29 14:11:11;;;;;;;2.17;1.25;;;;;;;;;;5070185;28;20436;-80
2023/12/29 14:13:44;;;;;;;1.73;1.63;;;;;;;;;;5051392;28;20047;-81
2023/12/29 14:16:10;;;;;;;1.25;0.95;;;;;;;;;;5070489;28;20045;-80
2023/12/29 14:18:51;;;;;;;1.58;0.95;;;;;;;;;;5069757;28;20030;-80
2023/12/29 14:21:30;;;;;;;2.05;1.30;;;;;;;;;;5069514;28;20031;-79
2023/12/29 14:24:05;;;;;;;2.60;1.65;;;;;;;;;;5053332;28;20025;-82
2023/12/29 14:26:30;;;;;;;1.23;1.13;;;;;;;;;;5069609;28;20040;-81
2023/12/29 14:29:10;;;;;;;2.80;1.70;;;;;;;;;;5070517;28;20036;-80
2023/12/29 14:31:43;;;;;;;0.90;0.80;;;;;;;;;;5070279;28;20025;-80
2023/12/29 14:34:09;;;;;;;1.02;0.93;;;;;;;;;;5069730;28;20051;-80
2023/12/29 14:36:35;;;;;;;0.90;0.90;;;;;;;;;;5050658;28;20457;-79
2023/12/29 14:39:02;;;;;;;2.10;1.58;;;;;;;;;;5051820;28;20432;-81
2023/12/29 14:41:29;;;;;;;3.53;1.63;;;;;;;;;;5068075;28;20403;-82
2023/12/29 14:43:54;;;;;;;2.90;1.73;;;;;;;;;;5069175;28;20032;-81
2023/12/29 14:46:20;;;;;;;0.68;0.68;;;;;;;;;;5051763;28;20033;-79